Time;durP1;ratioP1;P1;durP2;ratioP2;P2;SDS_P1;SDS_P2;PMS_P1;PMS_P2;Temp;Humidity;BMP_temperature;BMP_pressure;BME280_temperature;BME280_humidity;BME280_pressure;Samples;Min_cycle;Max_cycle;Signal;HPM_P1;HPM_P2
2022/11/20 00:00:56;;;;;;;22.33;11.15;;;-2.10;99.90;;;;;;5112179;28;20084;-79
2022/11/20 00:03:22;;;;;;;22.77;11.30;;;-2.20;99.90;;;;;;5119584;28;20304;-79
2022/11/20 00:05:48;;;;;;;27.02;11.27;;;-2.20;99.90;;;;;;5106935;28;20055;-80
2022/11/20 00:08:13;;;;;;;22.85;10.88;;;-2.20;99.90;;;;;;5105189;28;20031;-80
2022/11/20 00:10:40;;;;;;;27.65;10.63;;;-2.20;99.90;;;;;;5113954;28;20037;-79
2022/11/20 00:13:07;;;;;;;23.20;10.63;;;-2.20;99.90;;;;;;5110021;28;20052;-79
2022/11/20 00:15:33;;;;;;;21.98;11.38;;;-2.20;99.90;;;;;;5099555;28;20083;-80
2022/11/20 00:17:59;;;;;;;18.10;9.88;;;-2.20;99.90;;;;;;5103624;28;20100;-79
2022/11/20 00:20:24;;;;;;;23.95;11.27;;;-2.20;99.90;;;;;;5117023;28;20057;-79
2022/11/20 00:22:50;;;;;;;22.15;10.77;;;-2.20;99.90;;;;;;5119739;28;20039;-80
2022/11/20 00:25:16;;;;;;;17.65;9.40;;;-2.30;99.90;;;;;;5101174;28;20488;-80
2022/11/20 00:27:42;;;;;;;28.42;11.00;;;-2.30;99.90;;;;;;5115084;27;20039;-80
2022/11/20 00:30:08;;;;;;;20.02;10.95;;;-2.40;99.90;;;;;;5099656;28;20039;-79
2022/11/20 00:32:34;;;;;;;17.90;10.13;;;-2.50;99.90;;;;;;5088936;28;20027;-79
2022/11/20 00:35:00;;;;;;;22.92;11.23;;;-2.40;99.90;;;;;;5088269;28;20089;-79
2022/11/20 00:37:26;;;;;;;19.80;10.00;;;-2.50;99.90;;;;;;5093053;28;20035;-80
2022/11/20 00:39:52;;;;;;;18.02;10.25;;;-2.50;99.90;;;;;;5090291;28;20032;-79
2022/11/20 00:42:18;;;;;;;20.50;10.43;;;-2.50;99.90;;;;;;5085541;28;20035;-80
2022/11/20 00:44:43;;;;;;;22.70;12.23;;;-2.50;99.90;;;;;;5070661;28;20031;-79
2022/11/20 00:47:09;;;;;;;19.85;10.32;;;-2.50;99.90;;;;;;5087299;28;20036;-79
2022/11/20 00:49:35;;;;;;;24.58;11.40;;;-2.50;99.90;;;;;;5105465;28;20028;-79
2022/11/20 00:52:00;;;;;;;23.23;10.05;;;-2.40;99.90;;;;;;5104095;28;20083;-79
2022/11/20 00:54:26;;;;;;;19.08;10.07;;;-2.40;99.90;;;;;;5113388;28;20043;-79
2022/11/20 00:56:55;;;;;;;21.98;11.30;;;-2.40;99.90;;;;;;5078924;28;20032;-80
2022/11/20 00:59:21;;;;;;;21.80;10.40;;;-2.40;99.90;;;;;;5094969;28;20032;-79
2022/11/20 01:01:47;;;;;;;21.73;10.48;;;-2.30;99.90;;;;;;5104798;28;20042;-79
2022/11/20 01:04:13;;;;;;;20.67;11.13;;;-2.30;99.90;;;;;;5096387;28;20058;-80
2022/11/20 01:06:39;;;;;;;21.05;10.82;;;-2.20;99.90;;;;;;5070794;28;20085;-79
2022/11/20 01:09:09;;;;;;;21.23;10.57;;;-2.20;99.90;;;;;;5108322;28;20031;-79
2022/11/20 01:11:38;;;;;;;22.80;10.43;;;-2.10;99.90;;;;;;5080166;28;20032;-79
2022/11/20 01:14:06;;;;;;;20.92;10.90;;;-2.00;99.90;;;;;;5089168;28;20061;-79
2022/11/20 01:16:39;;;;;;;22.15;10.85;;;-2.00;99.90;;;;;;5117531;28;20032;-79
2022/11/20 01:19:09;;;;;;;21.15;10.05;;;-1.90;99.90;;;;;;5119469;28;20027;-79
2022/11/20 01:21:37;;;;;;;21.73;10.75;;;-1.90;99.90;;;;;;5113892;28;20118;-80
2022/11/20 01:24:05;;;;;;;21.08;10.35;;;-1.80;99.90;;;;;;5102074;28;20181;-80
2022/11/20 01:26:37;;;;;;;19.52;10.68;;;-1.80;99.90;;;;;;5119690;28;20032;-79
2022/11/20 01:29:04;;;;;;;20.83;10.30;;;-1.90;99.90;;;;;;5103851;28;20036;-79
2022/11/20 01:31:35;;;;;;;20.63;10.40;;;-1.90;99.90;;;;;;5118739;28;20051;-79
2022/11/20 01:34:13;;;;;;;21.50;10.18;;;-1.90;99.90;;;;;;5104561;28;20047;-80
2022/11/20 01:36:39;;;;;;;19.95;10.50;;;-1.90;99.90;;;;;;5098721;28;20036;-80
2022/11/20 01:39:09;;;;;;;18.00;9.52;;;-1.90;99.90;;;;;;5096813;28;20036;-80
2022/11/20 01:44:41;;;;;;;19.13;9.38;;;-1.90;99.90;;;;;;5116449;28;20081;-79
2022/11/20 01:47:09;;;;;;;20.58;9.65;;;-1.90;99.90;;;;;;5100279;28;20040;-80
2022/11/20 01:49:41;;;;;;;18.92;9.85;;;-1.80;99.90;;;;;;5084810;28;20024;-80
2022/11/20 01:52:22;;;;;;;23.83;10.73;;;-1.80;99.90;;;;;;5097053;28;20024;-79
2022/11/20 01:55:09;;;;;;;20.00;10.05;;;-1.80;99.90;;;;;;5099458;28;20039;-79
2022/11/20 01:57:35;;;;;;;18.08;9.60;;;-1.80;99.90;;;;;;5097989;28;20048;-79
2022/11/20 02:00:06;;;;;;;19.98;9.80;;;-1.80;99.90;;;;;;5118259;28;20781;-79
2022/11/20 02:02:40;;;;;;;22.48;10.90;;;-1.80;99.90;;;;;;5117501;28;20103;-79
2022/11/20 02:05:35;;;;;;;25.08;11.75;;;-1.80;99.90;;;;;;5101683;28;20039;-80
2022/11/20 02:08:04;;;;;;;22.48;10.95;;;-1.80;99.90;;;;;;5092148;28;20040;-79
2022/11/20 02:10:30;;;;;;;20.73;10.52;;;-1.80;99.90;;;;;;5080026;27;20031;-79
2022/11/20 02:15:41;;;;;;;21.30;10.48;;;-1.80;99.90;;;;;;5085414;28;20152;-79
2022/11/20 02:18:07;;;;;;;22.27;10.48;;;-1.80;99.90;;;;;;5100016;28;20031;-79
2022/11/20 02:20:34;;;;;;;22.15;10.43;;;-1.80;99.90;;;;;;5100586;28;20051;-79
2022/11/20 02:23:24;;;;;;;24.15;12.20;;;-1.90;99.90;;;;;;5082956;28;20051;-79
2022/11/20 02:25:50;;;;;;;23.05;11.20;;;-1.90;99.90;;;;;;5115804;28;20062;-80
2022/11/20 02:28:17;;;;;;;20.45;11.35;;;-1.90;99.90;;;;;;5106896;28;20028;-79
2022/11/20 02:30:43;;;;;;;19.40;9.88;;;-1.80;99.90;;;;;;5109995;28;20371;-79
2022/11/20 02:33:09;;;;;;;20.60;11.27;;;-1.90;99.90;;;;;;5078564;28;20119;-80
2022/11/20 02:35:35;;;;;;;23.45;11.50;;;-1.80;99.90;;;;;;5094606;28;20032;-80
2022/11/20 02:38:02;;;;;;;19.92;10.50;;;-1.80;99.90;;;;;;5080256;28;20024;-79
2022/11/20 02:40:29;;;;;;;20.13;10.48;;;-1.80;99.90;;;;;;5111278;27;20040;-79
2022/11/20 02:42:56;;;;;;;22.55;11.05;;;-1.80;99.90;;;;;;5111771;28;20028;-80
2022/11/20 02:45:22;;;;;;;19.83;10.73;;;-1.80;99.90;;;;;;5112535;28;20106;-80
2022/11/20 02:47:49;;;;;;;23.77;11.27;;;-1.80;99.90;;;;;;5102551;28;20505;-79
2022/11/20 02:50:14;;;;;;;20.17;9.73;;;-1.90;99.90;;;;;;5083715;28;20038;-80
2022/11/20 02:52:40;;;;;;;21.70;10.45;;;-1.90;99.90;;;;;;5058004;28;20033;-80
2022/11/20 02:55:06;;;;;;;20.83;10.88;;;-1.80;99.90;;;;;;5109844;28;20028;-79
2022/11/20 02:57:32;;;;;;;19.42;10.05;;;-1.80;99.90;;;;;;5055982;28;20028;-80
2022/11/20 02:59:58;;;;;;;19.70;10.23;;;-1.80;99.90;;;;;;5070792;28;20096;-80
2022/11/20 03:02:24;;;;;;;21.08;10.13;;;-1.80;99.90;;;;;;5074555;28;20040;-80
2022/11/20 03:04:49;;;;;;;19.50;9.93;;;-1.70;99.90;;;;;;5090799;28;20038;-80
2022/11/20 03:07:15;;;;;;;23.23;11.10;;;-1.70;99.90;;;;;;5094335;28;20027;-80
2022/11/20 03:09:41;;;;;;;21.55;10.05;;;-1.60;99.90;;;;;;5058772;28;20047;-80
2022/11/20 03:12:07;;;;;;;17.60;9.18;;;-1.60;99.90;;;;;;5070794;28;20036;-80
2022/11/20 03:14:34;;;;;;;21.35;10.52;;;-1.60;99.90;;;;;;5053101;28;20377;-81
2022/11/20 03:16:59;;;;;;;22.20;10.13;;;-1.50;99.90;;;;;;5107266;28;20054;-80
2022/11/20 03:19:25;;;;;;;21.92;10.77;;;-1.40;99.90;;;;;;5070206;28;20032;-79
2022/11/20 03:21:51;;;;;;;19.30;10.13;;;-1.40;99.90;;;;;;5067984;28;20051;-80
2022/11/20 03:24:16;;;;;;;23.98;10.90;;;-1.40;99.90;;;;;;5053436;28;20055;-81
2022/11/20 03:26:42;;;;;;;21.45;11.10;;;-1.40;99.90;;;;;;5078168;28;20711;-81
2022/11/20 03:29:08;;;;;;;21.65;10.68;;;-1.40;99.90;;;;;;5070681;28;20040;-80
2022/11/20 03:31:37;;;;;;;21.17;10.98;;;-1.40;99.90;;;;;;5061746;28;20032;-81
2022/11/20 03:34:04;;;;;;;20.98;10.20;;;-1.40;99.90;;;;;;5070588;28;20039;-80
2022/11/20 03:36:30;;;;;;;20.88;10.10;;;-1.40;99.90;;;;;;5087710;28;20032;-80
2022/11/20 03:38:56;;;;;;;23.45;10.38;;;-1.40;99.90;;;;;;5070725;28;20035;-81
2022/11/20 03:41:28;;;;;;;23.65;11.25;;;-1.50;99.90;;;;;;5070714;28;20035;-80
2022/11/20 03:43:59;;;;;;;24.70;12.73;;;-1.50;99.90;;;;;;5108480;28;20439;-80
2022/11/20 03:46:29;;;;;;;20.33;10.70;;;-1.60;99.90;;;;;;5069971;28;20036;-80
2022/11/20 03:48:55;;;;;;;21.58;11.18;;;-1.60;99.90;;;;;;5061700;28;20032;-80
2022/11/20 03:51:24;;;;;;;22.25;10.93;;;-1.60;99.90;;;;;;5108472;28;20039;-80
2022/11/20 03:53:51;;;;;;;22.13;11.25;;;-1.60;99.90;;;;;;5053371;28;20036;-80
2022/11/20 03:56:20;;;;;;;20.17;10.93;;;-1.60;99.90;;;;;;5070104;28;20118;-80
2022/11/20 03:58:46;;;;;;;22.30;10.95;;;-1.60;99.90;;;;;;5039964;28;20136;-80
2022/11/20 04:01:20;;;;;;;23.38;11.50;;;-1.60;99.90;;;;;;5110355;28;20085;-80
2022/11/20 04:03:47;;;;;;;25.38;11.43;;;-1.50;99.90;;;;;;5095298;28;20167;-79
2022/11/20 04:06:22;;;;;;;22.95;11.02;;;-1.50;99.90;;;;;;5090279;28;20031;-79
2022/11/20 04:08:49;;;;;;;20.13;10.80;;;-1.50;99.90;;;;;;5076214;28;20036;-80
2022/11/20 04:11:23;;;;;;;25.23;12.07;;;-1.60;99.90;;;;;;5094534;28;20030;-80
2022/11/20 04:13:52;;;;;;;23.00;11.13;;;-1.60;99.90;;;;;;5094520;28;20109;-80
2022/11/20 04:16:18;;;;;;;21.52;10.60;;;-1.60;99.90;;;;;;5075310;28;20032;-80
2022/11/20 04:18:45;;;;;;;20.83;10.43;;;-1.50;99.90;;;;;;5072821;28;20118;-81
2022/11/20 04:21:11;;;;;;;22.77;10.95;;;-1.50;99.90;;;;;;5064113;28;20185;-81
2022/11/20 04:23:38;;;;;;;23.13;12.02;;;-1.40;99.90;;;;;;5088594;27;20066;-80
2022/11/20 04:26:09;;;;;;;24.95;11.05;;;-1.50;99.90;;;;;;5068024;28;20493;-80
2022/11/20 04:28:36;;;;;;;17.98;9.35;;;-1.50;99.90;;;;;;5089129;28;20068;-80
2022/11/20 04:31:06;;;;;;;19.88;10.50;;;-1.50;99.90;;;;;;5067777;28;20043;-80
2022/11/20 04:33:33;;;;;;;23.15;11.25;;;-1.50;99.90;;;;;;5101503;28;20028;-80
2022/11/20 04:36:07;;;;;;;23.17;11.30;;;-1.50;99.90;;;;;;5097783;28;20657;-81
2022/11/20 04:38:34;;;;;;;22.42;11.15;;;-1.50;99.90;;;;;;5077794;27;20023;-80
2022/11/20 04:41:01;;;;;;;20.90;10.55;;;-1.40;99.90;;;;;;5079850;28;20040;-80
2022/11/20 04:43:27;;;;;;;22.55;11.23;;;-1.40;99.90;;;;;;5087142;28;20073;-80
2022/11/20 04:45:55;;;;;;;22.10;11.30;;;-1.40;99.90;;;;;;5093482;28;20028;-80
2022/11/20 04:48:21;;;;;;;21.88;10.18;;;-1.40;99.90;;;;;;5088144;28;20032;-80
2022/11/20 04:50:47;;;;;;;20.05;10.32;;;-1.30;99.90;;;;;;5094279;28;20032;-80
2022/11/20 04:53:13;;;;;;;20.17;10.00;;;-1.30;99.90;;;;;;5068839;28;20042;-80
2022/11/20 04:55:39;;;;;;;23.92;11.20;;;-1.30;99.90;;;;;;5093949;28;20114;-79
2022/11/20 04:58:05;;;;;;;21.98;10.45;;;-1.20;99.90;;;;;;5059776;28;20098;-81
2022/11/20 05:00:31;;;;;;;22.35;11.10;;;-1.20;99.90;;;;;;5097483;28;20100;-80
2022/11/20 05:02:57;;;;;;;22.52;11.20;;;-1.20;99.90;;;;;;5115153;28;20030;-80
2022/11/20 05:05:23;;;;;;;19.17;10.05;;;-1.10;99.90;;;;;;5062776;28;20039;-81
2022/11/20 05:07:48;;;;;;;22.83;10.50;;;-1.10;99.90;;;;;;5114399;28;20023;-81
2022/11/20 05:10:14;;;;;;;22.60;10.82;;;-1.10;99.90;;;;;;5076032;28;20036;-81
2022/11/20 05:12:40;;;;;;;19.77;10.48;;;-1.10;99.90;;;;;;5092835;28;20028;-80
2022/11/20 05:15:06;;;;;;;21.50;10.40;;;-1.10;99.90;;;;;;5079353;28;20028;-79
2022/11/20 05:17:32;;;;;;;20.08;10.40;;;-1.00;99.90;;;;;;5101958;28;20330;-81
2022/11/20 05:20:01;;;;;;;21.17;10.25;;;-1.00;99.90;;;;;;5062505;28;20062;-80
2022/11/20 05:22:26;;;;;;;20.83;10.38;;;-1.00;99.90;;;;;;5076208;28;20024;-80
2022/11/20 05:24:52;;;;;;;23.55;11.02;;;-1.00;99.90;;;;;;5075674;28;20492;-80
2022/11/20 05:27:18;;;;;;;21.95;10.13;;;-1.10;99.90;;;;;;5073167;28;20039;-81
2022/11/20 05:29:44;;;;;;;20.02;10.50;;;-1.10;99.90;;;;;;5075172;28;20035;-79
2022/11/20 05:32:10;;;;;;;19.13;10.35;;;-1.00;99.90;;;;;;5076243;28;20426;-81
2022/11/20 05:34:36;;;;;;;23.30;11.30;;;-1.00;99.90;;;;;;5042254;28;20035;-80
2022/11/20 05:37:02;;;;;;;19.42;10.30;;;-1.00;99.90;;;;;;5075538;28;20036;-80
2022/11/20 05:39:28;;;;;;;21.05;11.10;;;-1.00;99.90;;;;;;5058537;28;20093;-82
2022/11/20 05:44:38;;;;;;;22.50;11.90;;;-1.00;99.90;;;;;;5101462;28;20032;-80
2022/11/20 05:47:04;;;;;;;25.13;10.70;;;-1.00;99.90;;;;;;5072507;28;20039;-81
2022/11/20 05:49:30;;;;;;;24.00;10.90;;;-0.90;99.90;;;;;;5083596;28;20038;-81
2022/11/20 05:51:56;;;;;;;21.05;10.90;;;-0.90;99.90;;;;;;5063477;28;20032;-79
2022/11/20 05:54:21;;;;;;;20.13;10.68;;;-0.90;99.90;;;;;;5077964;28;20039;-80
2022/11/20 05:56:47;;;;;;;20.27;10.68;;;-0.90;99.90;;;;;;5083814;28;20035;-79
2022/11/20 05:59:13;;;;;;;22.45;11.82;;;-0.90;99.90;;;;;;5091545;28;20058;-80
2022/11/20 06:01:39;;;;;;;23.52;11.15;;;-0.90;99.90;;;;;;5085958;28;20035;-80
2022/11/20 06:04:06;;;;;;;26.58;12.60;;;-0.90;99.90;;;;;;5094484;28;20027;-80
2022/11/20 06:06:32;;;;;;;24.70;11.98;;;-0.90;99.90;;;;;;5080922;28;20421;-80
2022/11/20 06:08:58;;;;;;;23.63;10.73;;;-0.90;99.90;;;;;;5077268;28;20036;-81
2022/11/20 06:11:25;;;;;;;18.63;10.52;;;-0.90;99.90;;;;;;5071733;28;20433;-80
2022/11/20 06:13:51;;;;;;;21.65;10.18;;;-0.80;99.90;;;;;;5048193;28;20051;-80
2022/11/20 06:16:19;;;;;;;21.88;10.50;;;-0.80;99.90;;;;;;5103493;28;20043;-79
2022/11/20 06:18:46;;;;;;;17.92;9.90;;;-0.80;99.90;;;;;;5093829;28;20087;-80
2022/11/20 06:21:15;;;;;;;20.05;10.75;;;-0.80;99.90;;;;;;5112743;28;20031;-80
2022/11/20 06:23:41;;;;;;;23.35;11.02;;;-0.80;99.90;;;;;;5110230;28;20020;-80
2022/11/20 06:26:12;;;;;;;21.15;10.32;;;-0.80;99.90;;;;;;5096034;28;20150;-80
2022/11/20 06:28:38;;;;;;;22.05;10.75;;;-0.80;99.90;;;;;;5072870;28;20027;-80
2022/11/20 06:31:05;;;;;;;21.65;10.68;;;-0.70;99.90;;;;;;5080272;28;20040;-80
2022/11/20 06:33:31;;;;;;;21.10;10.65;;;-0.70;99.90;;;;;;5094814;28;20072;-80
2022/11/20 06:36:01;;;;;;;26.33;12.05;;;-0.70;99.90;;;;;;5081831;28;20028;-79
2022/11/20 06:38:27;;;;;;;27.58;12.13;;;-0.70;99.90;;;;;;5086981;28;20123;-80
2022/11/20 06:40:53;;;;;;;28.13;12.23;;;-0.70;99.90;;;;;;5102006;28;20076;-80
2022/11/20 06:43:19;;;;;;;25.75;12.18;;;-0.70;99.90;;;;;;5080623;28;20122;-79
2022/11/20 06:45:45;;;;;;;27.95;12.13;;;-0.70;99.90;;;;;;5084728;28;20032;-79
2022/11/20 06:48:11;;;;;;;25.15;11.63;;;-0.70;99.90;;;;;;5097574;28;20039;-80
2022/11/20 06:50:37;;;;;;;27.73;11.38;;;-0.70;99.90;;;;;;5056237;28;20039;-79
2022/11/20 06:53:04;;;;;;;22.23;10.95;;;-0.70;99.90;;;;;;5088791;28;20035;-80
2022/11/20 06:55:31;;;;;;;25.45;11.35;;;-0.60;99.90;;;;;;5086733;28;20000;-80
2022/11/20 06:57:57;;;;;;;24.98;12.15;;;-0.60;99.90;;;;;;5102868;28;20036;-80
2022/11/20 07:00:23;;;;;;;21.58;10.93;;;-0.60;99.90;;;;;;5086227;28;20475;-79
2022/11/20 07:02:49;;;;;;;21.02;10.75;;;-0.60;99.90;;;;;;5081771;28;20032;-80
2022/11/20 07:05:15;;;;;;;21.67;10.82;;;-0.50;99.90;;;;;;5100225;28;20061;-80
2022/11/20 07:07:42;;;;;;;21.55;10.38;;;-0.60;99.90;;;;;;5084558;28;20099;-79
2022/11/20 07:10:08;;;;;;;25.83;11.98;;;-0.50;99.90;;;;;;5099788;28;20036;-79
2022/11/20 07:12:34;;;;;;;22.15;10.57;;;-0.60;99.90;;;;;;5083943;28;20020;-80
2022/11/20 07:14:59;;;;;;;20.60;10.73;;;-0.50;99.90;;;;;;5097466;28;20027;-80
2022/11/20 07:17:25;;;;;;;26.83;11.63;;;-0.50;99.90;;;;;;5083526;28;20024;-80
2022/11/20 07:19:51;;;;;;;25.88;12.65;;;-0.50;99.90;;;;;;5090446;28;20038;-80
2022/11/20 07:22:17;;;;;;;28.65;12.65;;;-0.50;99.90;;;;;;5102871;28;20035;-79
2022/11/20 07:24:42;;;;;;;27.95;12.52;;;-0.40;99.90;;;;;;5082355;28;20042;-80
2022/11/20 07:27:08;;;;;;;29.58;14.50;;;-0.50;99.90;;;;;;5081444;28;20122;-80
2022/11/20 07:29:34;;;;;;;25.67;12.93;;;-0.50;99.90;;;;;;5098496;28;20047;-80
2022/11/20 07:32:00;;;;;;;23.55;11.63;;;-0.60;99.90;;;;;;5077385;28;20039;-79
2022/11/20 07:34:25;;;;;;;29.33;13.38;;;-0.50;99.90;;;;;;5115503;28;20020;-79
2022/11/20 07:36:51;;;;;;;26.02;13.13;;;-0.50;99.90;;;;;;5101624;28;20087;-80
2022/11/20 07:39:17;;;;;;;32.28;14.25;;;-0.50;99.90;;;;;;5085125;28;20024;-80
2022/11/20 07:41:43;;;;;;;30.95;14.95;;;-0.50;99.90;;;;;;5087481;28;20103;-78
2022/11/20 07:44:08;;;;;;;27.25;13.70;;;-0.40;99.90;;;;;;5104662;28;20028;-79
2022/11/20 07:46:34;;;;;;;24.60;12.18;;;-0.40;99.90;;;;;;5103927;28;20349;-79
2022/11/20 07:49:00;;;;;;;24.17;12.25;;;-0.30;99.90;;;;;;5087895;28;20085;-80
2022/11/20 07:51:26;;;;;;;23.25;10.85;;;-0.30;99.90;;;;;;5103430;28;20091;-80
2022/11/20 07:53:52;;;;;;;22.30;10.80;;;-0.30;99.90;;;;;;5098712;28;20027;-80
2022/11/20 07:56:18;;;;;;;23.50;10.88;;;-0.20;99.90;;;;;;5098458;28;20034;-79
2022/11/20 07:58:44;;;;;;;20.77;10.70;;;-0.20;99.90;;;;;;5077587;28;20056;-80
2022/11/20 08:01:10;;;;;;;20.08;10.52;;;-0.20;99.90;;;;;;5087600;28;20047;-79
2022/11/20 08:03:39;;;;;;;33.83;16.58;;;-0.20;99.90;;;;;;5116029;28;20131;-80
2022/11/20 08:06:05;;;;;;;36.17;16.77;;;-0.30;99.90;;;;;;5081434;28;20066;-81
2022/11/20 08:08:31;;;;;;;28.33;12.88;;;-0.30;99.90;;;;;;5089900;28;20035;-79
2022/11/20 08:16:26;;;;;;;33.95;16.08;;;-0.30;99.90;;;;;;5112846;28;20425;-80
2022/11/20 08:18:52;;;;;;;31.83;15.23;;;-0.30;99.90;;;;;;5093372;28;20027;-79
2022/11/20 08:21:17;;;;;;;34.00;16.38;;;-0.20;99.90;;;;;;5095508;28;20027;-79
2022/11/20 08:23:43;;;;;;;29.67;14.70;;;-0.20;99.90;;;;;;5085659;28;20028;-79
2022/11/20 08:26:09;;;;;;;35.13;16.50;;;-0.20;99.90;;;;;;5124157;28;20035;-80
2022/11/20 08:28:35;;;;;;;31.77;14.05;;;-0.20;99.90;;;;;;5085778;28;20028;-80
2022/11/20 08:31:01;;;;;;;21.92;11.98;;;-0.20;99.90;;;;;;5061572;28;20067;-80
2022/11/20 08:33:27;;;;;;;22.90;11.35;;;-0.20;99.90;;;;;;5041824;28;1267706;-80
2022/11/20 08:35:53;;;;;;;20.83;11.35;;;-0.20;99.90;;;;;;5085199;28;20392;-79
2022/11/20 08:38:19;;;;;;;22.15;11.52;;;-0.10;99.90;;;;;;5080714;28;20043;-80
2022/11/20 08:41:23;;;;;;;26.50;13.13;;;0.00;99.90;;;;;;5059070;28;20040;-80
2022/11/20 08:43:30;;;;;;;34.83;15.73;;;0.00;99.90;;;;;;5111783;28;20702;-79
2022/11/20 08:45:57;;;;;;;35.33;15.50;;;0.00;99.90;;;;;;5071984;28;20032;-81
2022/11/20 08:48:22;;;;;;;32.92;16.67;;;0.10;99.90;;;;;;5094200;28;20032;-81
2022/11/20 08:50:48;;;;;;;29.88;15.48;;;0.10;99.90;;;;;;5067985;28;20618;-80
2022/11/20 08:53:14;;;;;;;32.80;14.77;;;0.10;99.90;;;;;;5097271;28;20058;-81
2022/11/20 08:55:40;;;;;;;24.42;11.63;;;0.10;99.90;;;;;;5107326;28;20023;-79
2022/11/20 08:58:06;;;;;;;29.50;14.50;;;0.20;99.90;;;;;;5077848;28;20031;-81
2022/11/20 09:00:33;;;;;;;34.72;15.88;;;0.30;99.90;;;;;;5073538;28;20028;-80
2022/11/20 09:03:00;;;;;;;31.27;15.27;;;0.20;99.90;;;;;;5064450;28;20043;-80
2022/11/20 09:05:26;;;;;;;36.47;16.67;;;0.20;99.90;;;;;;5063725;28;20043;-79
2022/11/20 09:07:56;;;;;;;26.15;12.48;;;0.20;99.90;;;;;;5077281;28;20620;-81
2022/11/20 09:10:22;;;;;;;33.67;15.13;;;0.20;99.90;;;;;;5075494;28;20047;-80
2022/11/20 09:12:52;;;;;;;38.08;17.42;;;0.20;99.90;;;;;;5057909;28;20055;-81
2022/11/20 09:15:18;;;;;;;35.95;16.73;;;0.20;99.90;;;;;;5090017;28;20047;-80
2022/11/20 09:17:59;;;;;;;30.52;14.77;;;0.20;99.90;;;;;;5077257;28;20039;-80
2022/11/20 09:20:26;;;;;;;36.78;15.73;;;0.20;99.90;;;;;;5094768;28;20399;-81
2022/11/20 09:22:52;;;;;;;34.15;15.38;;;0.30;99.90;;;;;;5064351;28;20032;-81
2022/11/20 09:25:18;;;;;;;34.03;16.05;;;0.30;99.90;;;;;;5056675;28;20039;-80
2022/11/20 09:27:45;;;;;;;35.67;16.70;;;0.20;99.90;;;;;;5074630;28;20047;-80
2022/11/20 09:30:12;;;;;;;31.33;15.43;;;0.30;99.90;;;;;;5090185;28;20079;-81
2022/11/20 09:32:42;;;;;;;35.35;16.70;;;0.30;99.90;;;;;;5089564;28;20084;-80
2022/11/20 09:35:08;;;;;;;31.33;14.95;;;0.30;99.90;;;;;;5089864;28;20023;-81
2022/11/20 09:37:34;;;;;;;28.33;14.40;;;0.40;99.90;;;;;;5088202;28;20028;-80
2022/11/20 09:40:00;;;;;;;28.30;15.50;;;0.40;99.90;;;;;;5065466;28;20792;-80
2022/11/20 09:42:53;;;;;;;33.75;15.65;;;0.40;99.90;;;;;;5087056;28;20584;-80
2022/11/20 09:45:38;;;;;;;41.35;19.98;;;0.50;99.90;;;;;;5092481;28;20046;-80
2022/11/20 09:48:12;;;;;;;33.25;15.43;;;0.50;99.90;;;;;;5100890;28;20032;-79
2022/11/20 09:51:03;;;;;;;34.92;15.93;;;0.60;99.90;;;;;;5118140;27;20016;-80
2022/11/20 09:53:50;;;;;;;37.10;15.95;;;0.60;99.90;;;;;;5091069;28;20027;-80
2022/11/20 09:56:18;;;;;;;34.60;17.02;;;0.60;99.90;;;;;;5113092;28;20383;-80
2022/11/20 09:58:48;;;;;;;36.42;17.00;;;0.50;99.90;;;;;;5113879;28;20402;-77
2022/11/20 10:01:19;;;;;;;32.75;15.88;;;0.50;99.90;;;;;;5097067;28;20040;-79
2022/11/20 10:03:52;;;;;;;36.85;16.58;;;0.50;99.90;;;;;;5101006;28;20027;-81
2022/11/20 10:06:27;;;;;;;35.20;16.88;;;0.40;99.90;;;;;;5088074;28;20039;-80
2022/11/20 10:09:04;;;;;;;;;;;0.40;99.90;;;;;;5091201;28;20028;-81
2022/11/20 10:11:45;;;;;;;33.53;15.80;;;0.40;99.90;;;;;;5086457;28;19915;-81
2022/11/20 10:14:23;;;;;;;37.72;16.90;;;0.40;99.90;;;;;;5084356;28;20097;-81
2022/11/20 10:17:01;;;;;;;36.92;16.73;;;0.40;99.90;;;;;;5086547;28;20032;-81
2022/11/20 10:19:42;;;;;;;37.47;15.85;;;0.40;99.90;;;;;;5092418;28;20151;-81
2022/11/20 10:22:27;;;;;;;34.50;15.95;;;0.40;99.90;;;;;;5094395;28;20028;-78
2022/11/20 10:25:10;;;;;;;30.70;14.73;;;0.40;99.90;;;;;;5098251;28;20032;-78
2022/11/20 10:27:50;;;;;;;28.52;14.57;;;0.40;99.90;;;;;;5115135;28;20039;-78
2022/11/20 10:30:19;;;;;;;27.52;13.82;;;0.50;99.90;;;;;;5107807;28;20667;-78
2022/11/20 10:32:56;;;;;;;29.15;14.57;;;0.60;99.90;;;;;;5098458;28;20032;-79
2022/11/20 10:35:25;;;;;;;27.30;13.50;;;0.60;99.90;;;;;;5084865;28;20459;-78
2022/11/20 10:38:05;;;;;;;26.40;13.13;;;0.60;99.90;;;;;;5101807;28;20028;-78
2022/11/20 10:40:44;;;;;;;33.72;15.07;;;0.60;99.90;;;;;;5108174;28;20028;-78
2022/11/20 10:43:17;;;;;;;27.73;13.25;;;0.60;99.90;;;;;;5084603;28;20709;-78
2022/11/20 10:45:51;;;;;;;30.42;15.15;;;0.70;99.90;;;;;;5106613;28;20051;-78
2022/11/20 10:48:26;;;;;;;32.60;15.07;;;0.70;99.90;;;;;;5097434;28;20081;-77
2022/11/20 10:51:18;;;;;;;33.90;15.00;;;0.70;99.90;;;;;;5081787;28;20392;-79
2022/11/20 10:53:53;;;;;;;32.90;14.32;;;0.70;99.90;;;;;;5111392;27;20023;-79
2022/11/20 10:56:30;;;;;;;31.48;14.07;;;0.70;99.90;;;;;;5115364;28;20017;-79
2022/11/20 10:59:22;;;;;;;33.85;15.93;;;0.80;99.90;;;;;;5106572;28;20032;-78
2022/11/20 11:01:48;;;;;;;30.85;14.23;;;0.80;99.90;;;;;;5100578;22;20383;-79
2022/11/20 11:04:41;;;;;;;36.45;15.43;;;0.90;99.90;;;;;;5103775;27;20056;-79
2022/11/20 11:07:15;;;;;;;31.90;13.75;;;0.90;99.90;;;;;;5124117;27;20043;-79
2022/11/20 11:09:53;;;;;;;28.63;14.57;;;0.80;99.90;;;;;;5107836;27;20045;-79
2022/11/20 11:12:25;;;;;;;31.50;15.07;;;0.80;99.90;;;;;;5088190;28;20032;-79
2022/11/20 11:14:52;;;;;;;31.90;14.27;;;0.80;99.90;;;;;;5105479;27;20024;-79
2022/11/20 11:17:26;;;;;;;28.77;14.07;;;0.80;99.90;;;;;;5111985;28;20024;-79
2022/11/20 11:20:19;;;;;;;32.67;15.13;;;0.80;99.90;;;;;;5124764;27;20034;-79
2022/11/20 11:22:52;;;;;;;27.70;13.63;;;0.90;99.90;;;;;;5098323;27;20031;-80
2022/11/20 11:25:28;;;;;;;23.83;12.23;;;0.90;99.90;;;;;;5134165;27;20075;-79
2022/11/20 11:27:59;;;;;;;26.40;13.68;;;0.90;99.90;;;;;;5129128;27;20390;-79
2022/11/20 11:30:26;;;;;;;25.38;13.13;;;0.90;99.90;;;;;;5091973;27;20035;-79
2022/11/20 11:33:05;;;;;;;26.17;12.63;;;0.90;99.90;;;;;;5106584;28;20107;-79
2022/11/20 11:35:31;;;;;;;25.90;13.10;;;1.00;99.90;;;;;;5126790;27;20027;-80
2022/11/20 11:38:21;;;;;;;27.23;12.77;;;1.00;99.90;;;;;;5118195;27;20051;-79
2022/11/20 11:40:47;;;;;;;23.77;11.40;;;1.00;99.90;;;;;;5103443;28;20055;-79
2022/11/20 11:46:20;;;;;;;24.08;12.18;;;1.00;99.90;;;;;;5107092;28;20031;-79
2022/11/20 11:48:57;;;;;;;26.85;13.55;;;1.10;99.90;;;;;;5114858;28;20024;-79
2022/11/20 11:51:41;;;;;;;28.65;13.43;;;1.10;99.90;;;;;;5117183;28;20040;-80
2022/11/20 11:54:22;;;;;;;28.13;13.35;;;1.20;99.90;;;;;;5107359;28;20024;-79
2022/11/20 11:56:49;;;;;;;26.52;12.63;;;1.20;99.90;;;;;;5116358;28;20108;-79
2022/11/20 11:59:26;;;;;;;25.60;12.50;;;1.20;99.90;;;;;;5113535;28;20244;-79
2022/11/20 12:01:59;;;;;;;29.10;13.65;;;1.20;99.90;;;;;;5120450;28;20086;-79
2022/11/20 12:04:44;;;;;;;27.98;13.02;;;1.20;99.90;;;;;;5117112;28;20040;-80
2022/11/20 12:07:35;;;;;;;25.70;11.95;;;1.20;99.90;;;;;;5117620;28;20057;-79
2022/11/20 12:10:02;;;;;;;24.80;12.20;;;1.20;99.90;;;;;;5122397;28;20081;-79
2022/11/20 12:12:43;;;;;;;23.42;11.27;;;1.30;99.90;;;;;;5104532;28;20043;-79
2022/11/20 12:15:22;;;;;;;23.27;11.05;;;1.30;99.90;;;;;;5113483;28;20027;-79
2022/11/20 12:17:48;;;;;;;24.77;11.30;;;1.30;99.90;;;;;;5111719;28;20059;-79
2022/11/20 12:20:14;;;;;;;17.60;9.80;;;1.30;99.90;;;;;;5117684;28;20487;-79
2022/11/20 12:22:43;;;;;;;22.10;10.73;;;1.30;99.90;;;;;;5126832;27;20057;-79
2022/11/20 12:25:15;;;;;;;24.75;11.85;;;1.30;99.90;;;;;;5115179;28;20031;-79
2022/11/20 12:27:47;;;;;;;19.73;10.93;;;1.40;99.90;;;;;;5121748;28;20024;-79
2022/11/20 12:30:18;;;;;;;19.58;9.55;;;1.30;99.90;;;;;;5120528;28;20027;-79
2022/11/20 12:33:18;;;;;;;20.55;11.00;;;1.40;99.90;;;;;;5112139;28;20471;-79
2022/11/20 12:36:05;;;;;;;21.63;10.70;;;1.40;99.90;;;;;;5114582;28;20020;-79
2022/11/20 12:38:40;;;;;;;22.33;10.57;;;1.40;99.90;;;;;;5113461;28;20057;-79
2022/11/20 12:47:31;;;;;;;19.67;9.63;;;1.50;99.90;;;;;;5109584;28;20057;-78
2022/11/20 12:50:12;;;;;;;19.95;10.07;;;1.60;99.90;;;;;;5108302;28;20027;-78
2022/11/20 12:52:57;;;;;;;19.95;9.43;;;1.60;99.90;;;;;;5103246;28;20031;-78
2022/11/20 12:55:51;;;;;;;20.67;9.73;;;1.60;99.90;;;;;;5103403;28;20024;-78
2022/11/20 12:58:19;;;;;;;26.42;11.70;;;1.60;99.90;;;;;;5113852;27;20020;-78
2022/11/20 13:01:39;;;;;;;24.08;10.98;;;1.60;99.90;;;;;;5111885;28;20020;-78
2022/11/20 13:04:02;;;;;;;21.83;11.20;;;1.60;99.90;;;;;;5103367;28;20126;-78
2022/11/20 13:06:28;;;;;;;21.73;10.85;;;1.60;99.90;;;;;;5103937;28;20050;-78